sensor_id;sensor_type;location;lat;lon;timestamp;pressure;altitude;pressure_sealevel;temperature;humidity
50790;BME280;37287;47.554;7.844;2023-04-15T00:01:39;96897.53;;;4.21;94.27
50790;BME280;37287;47.554;7.844;2023-04-15T00:04:05;96896.75;;;4.21;93.98
50790;BME280;37287;47.554;7.844;2023-04-15T00:06:32;96898.31;;;4.22;94.20
50790;BME280;37287;47.554;7.844;2023-04-15T00:08:59;96901.00;;;4.22;93.31
50790;BME280;37287;47.554;7.844;2023-04-15T00:11:26;96885.28;;;4.20;93.44
50790;BME280;37287;47.554;7.844;2023-04-15T00:13:53;96883.31;;;4.17;93.30
50790;BME280;37287;47.554;7.844;2023-04-15T00:16:21;96884.09;;;4.18;93.25
50790;BME280;37287;47.554;7.844;2023-04-15T00:18:48;96894.44;;;4.19;93.21
50790;BME280;37287;47.554;7.844;2023-04-15T00:21:16;96887.97;;;4.20;92.33
50790;BME280;37287;47.554;7.844;2023-04-15T00:23:43;96886.81;;;4.21;92.43
50790;BME280;37287;47.554;7.844;2023-04-15T00:26:09;96885.31;;;4.24;92.42
50790;BME280;37287;47.554;7.844;2023-04-15T00:28:36;96887.66;;;4.25;91.58
50790;BME280;37287;47.554;7.844;2023-04-15T00:31:02;96895.00;;;4.28;91.47
50790;BME280;37287;47.554;7.844;2023-04-15T00:33:31;96890.03;;;4.30;90.63
50790;BME280;37287;47.554;7.844;2023-04-15T00:36:02;96893.13;;;4.33;90.34
50790;BME280;37287;47.554;7.844;2023-04-15T00:38:30;96895.09;;;4.36;90.70
50790;BME280;37287;47.554;7.844;2023-04-15T00:40:57;96894.75;;;4.37;90.32
50790;BME280;37287;47.554;7.844;2023-04-15T00:43:24;96897.81;;;4.39;90.29
50790;BME280;37287;47.554;7.844;2023-04-15T00:45:57;96896.34;;;4.42;90.39
50790;BME280;37287;47.554;7.844;2023-04-15T00:48:25;96902.06;;;4.40;90.05
50790;BME280;37287;47.554;7.844;2023-04-15T00:50:53;96904.75;;;4.40;90.64
50790;BME280;37287;47.554;7.844;2023-04-15T00:53:20;96892.81;;;4.38;90.44
50790;BME280;37287;47.554;7.844;2023-04-15T00:55:47;96897.78;;;4.36;91.10
50790;BME280;37287;47.554;7.844;2023-04-15T00:58:13;96895.88;;;4.36;90.89
50790;BME280;37287;47.554;7.844;2023-04-15T01:05:56;96894.91;;;4.25;92.51
50790;BME280;37287;47.554;7.844;2023-04-15T01:08:26;96886.03;;;4.21;93.13
50790;BME280;37287;47.554;7.844;2023-04-15T01:10:55;96889.81;;;4.16;94.15
50790;BME280;37287;47.554;7.844;2023-04-15T01:13:25;96885.94;;;4.13;94.86
50790;BME280;37287;47.554;7.844;2023-04-15T01:15:55;96881.66;;;4.09;95.27
50790;BME280;37287;47.554;7.844;2023-04-15T01:18:22;96889.69;;;4.09;95.50
50790;BME280;37287;47.554;7.844;2023-04-15T01:20:49;96868.97;;;4.06;95.79
50790;BME280;37287;47.554;7.844;2023-04-15T01:23:16;96878.13;;;4.05;95.91
50790;BME280;37287;47.554;7.844;2023-04-15T01:25:44;96876.56;;;4.04;96.16
50790;BME280;37287;47.554;7.844;2023-04-15T01:28:13;96876.09;;;3.98;96.58
50790;BME280;37287;47.554;7.844;2023-04-15T01:30:44;96872.22;;;3.95;96.16
50790;BME280;37287;47.554;7.844;2023-04-15T01:33:11;96879.50;;;3.95;95.79
50790;BME280;37287;47.554;7.844;2023-04-15T01:35:37;96872.94;;;3.92;95.21
50790;BME280;37287;47.554;7.844;2023-04-15T01:38:10;96869.13;;;3.93;95.10
50790;BME280;37287;47.554;7.844;2023-04-15T01:40:37;96872.19;;;3.92;94.87
50790;BME280;37287;47.554;7.844;2023-04-15T01:43:04;96875.25;;;3.94;94.85
50790;BME280;37287;47.554;7.844;2023-04-15T01:45:31;96876.38;;;3.93;94.81
50790;BME280;37287;47.554;7.844;2023-04-15T01:47:57;96877.19;;;3.93;93.88
50790;BME280;37287;47.554;7.844;2023-04-15T01:50:24;96871.09;;;3.96;94.09
50790;BME280;37287;47.554;7.844;2023-04-15T01:52:58;96877.22;;;3.97;93.86
50790;BME280;37287;47.554;7.844;2023-04-15T01:55:25;96878.72;;;3.94;93.44
50790;BME280;37287;47.554;7.844;2023-04-15T01:57:52;96877.19;;;3.93;93.25
50790;BME280;37287;47.554;7.844;2023-04-15T02:00:21;96878.66;;;3.91;93.50
50790;BME280;37287;47.554;7.844;2023-04-15T02:02:48;96868.72;;;3.91;93.77
50790;BME280;37287;47.554;7.844;2023-04-15T02:05:15;96874.84;;;3.92;93.41
50790;BME280;37287;47.554;7.844;2023-04-15T02:07:42;96878.28;;;3.92;93.39
50790;BME280;37287;47.554;7.844;2023-04-15T02:10:10;96879.00;;;3.89;93.39
50790;BME280;37287;47.554;7.844;2023-04-15T02:12:39;96880.50;;;3.87;93.79
50790;BME280;37287;47.554;7.844;2023-04-15T02:15:06;96874.38;;;3.86;93.64
50790;BME280;37287;47.554;7.844;2023-04-15T02:17:33;96870.53;;;3.87;94.06
50790;BME280;37287;47.554;7.844;2023-04-15T02:20:01;96881.69;;;3.89;94.35
50790;BME280;37287;47.554;7.844;2023-04-15T02:22:31;96874.06;;;3.91;94.64
50790;BME280;37287;47.554;7.844;2023-04-15T02:24:58;96876.75;;;3.91;94.58
50790;BME280;37287;47.554;7.844;2023-04-15T02:27:24;96871.38;;;3.91;94.71
50790;BME280;37287;47.554;7.844;2023-04-15T02:29:53;96874.06;;;3.91;95.52
50790;BME280;37287;47.554;7.844;2023-04-15T02:32:20;96871.38;;;3.91;95.40
50790;BME280;37287;47.554;7.844;2023-04-15T02:34:48;96869.13;;;3.93;95.85
50790;BME280;37287;47.554;7.844;2023-04-15T02:37:15;96870.34;;;3.96;96.17
50790;BME280;37287;47.554;7.844;2023-04-15T02:39:42;96871.09;;;3.96;95.25
50790;BME280;37287;47.554;7.844;2023-04-15T02:42:09;96870.75;;;3.98;95.44
50790;BME280;37287;47.554;7.844;2023-04-15T02:44:37;96868.81;;;3.99;95.12
50790;BME280;37287;47.554;7.844;2023-04-15T02:47:04;96873.06;;;4.00;95.08
50790;BME280;37287;47.554;7.844;2023-04-15T02:49:32;96867.72;;;4.00;94.24
50790;BME280;37287;47.554;7.844;2023-04-15T02:52:00;96859.66;;;4.00;93.46
50790;BME280;37287;47.554;7.844;2023-04-15T02:54:27;96851.22;;;3.98;93.40
50790;BME280;37287;47.554;7.844;2023-04-15T02:56:54;96851.22;;;3.98;93.93
50790;BME280;37287;47.554;7.844;2023-04-15T02:59:21;96847.34;;;3.95;93.88
50790;BME280;37287;47.554;7.844;2023-04-15T03:01:48;96849.69;;;3.96;93.41
50790;BME280;37287;47.554;7.844;2023-04-15T03:04:15;96847.34;;;3.95;93.40
50790;BME280;37287;47.554;7.844;2023-04-15T03:06:42;96841.56;;;3.93;93.26
50790;BME280;37287;47.554;7.844;2023-04-15T03:09:08;96855.75;;;3.93;92.79
50790;BME280;37287;47.554;7.844;2023-04-15T03:11:35;96861.09;;;3.93;92.74
50790;BME280;37287;47.554;7.844;2023-04-15T03:14:07;96848.84;;;3.92;92.83
50790;BME280;37287;47.554;7.844;2023-04-15T03:16:34;96853.44;;;3.92;93.41
50790;BME280;37287;47.554;7.844;2023-04-15T03:19:01;96856.47;;;3.90;92.93
50790;BME280;37287;47.554;7.844;2023-04-15T03:21:31;96853.78;;;3.90;93.60
50790;BME280;37287;47.554;7.844;2023-04-15T03:23:58;96851.13;;;3.90;92.93
50790;BME280;37287;47.554;7.844;2023-04-15T03:26:28;96846.59;;;3.94;93.45
50790;BME280;37287;47.554;7.844;2023-04-15T03:28:56;96844.31;;;3.96;93.02
50790;BME280;37287;47.554;7.844;2023-04-15T03:31:25;96844.44;;;4.04;92.01
50790;BME280;37287;47.554;7.844;2023-04-15T03:33:52;96839.91;;;4.08;91.73
50790;BME280;37287;47.554;7.844;2023-04-15T03:36:20;96829.75;;;4.17;90.86
50790;BME280;37287;47.554;7.844;2023-04-15T03:38:47;96833.66;;;4.23;89.90
50790;BME280;37287;47.554;7.844;2023-04-15T03:41:16;96843.34;;;4.32;89.16
50790;BME280;37287;47.554;7.844;2023-04-15T03:43:49;96847.28;;;4.38;90.08
50790;BME280;37287;47.554;7.844;2023-04-15T03:46:19;96848.41;;;4.37;92.59
50790;BME280;37287;47.554;7.844;2023-04-15T03:48:47;96854.47;;;4.34;93.69
50790;BME280;37287;47.554;7.844;2023-04-15T03:51:14;96852.22;;;4.36;92.69
50790;BME280;37287;47.554;7.844;2023-04-15T03:53:40;96849.59;;;4.39;91.40
50790;BME280;37287;47.554;7.844;2023-04-15T03:56:07;96847.38;;;4.45;90.46
50790;BME280;37287;47.554;7.844;2023-04-15T03:58:34;96842.09;;;4.48;89.67
50790;BME280;37287;47.554;7.844;2023-04-15T04:01:00;96847.47;;;4.52;90.27
50790;BME280;37287;47.554;7.844;2023-04-15T04:03:27;96848.63;;;4.51;92.16
50790;BME280;37287;47.554;7.844;2023-04-15T04:06:00;96843.97;;;4.48;93.81
50790;BME280;37287;47.554;7.844;2023-04-15T04:08:27;96842.81;;;4.45;95.08
50790;BME280;37287;47.554;7.844;2023-04-15T04:10:54;96843.13;;;4.44;95.72
50790;BME280;37287;47.554;7.844;2023-04-15T04:13:22;96839.03;;;4.50;93.79
50790;BME280;37287;47.554;7.844;2023-04-15T04:15:49;96843.47;;;4.65;90.12
50790;BME280;37287;47.554;7.844;2023-04-15T04:18:16;96848.66;;;4.81;86.75
50790;BME280;37287;47.554;7.844;2023-04-15T04:20:44;96850.34;;;4.93;82.97
50790;BME280;37287;47.554;7.844;2023-04-15T04:23:11;96847.88;;;5.08;81.04
50790;BME280;37287;47.554;7.844;2023-04-15T04:25:37;96858.69;;;5.15;79.54
50790;BME280;37287;47.554;7.844;2023-04-15T04:28:08;96849.53;;;5.20;78.81
50790;BME280;37287;47.554;7.844;2023-04-15T04:30:35;96862.22;;;5.23;78.92
50790;BME280;37287;47.554;7.844;2023-04-15T04:33:01;96856.13;;;5.26;78.41
50790;BME280;37287;47.554;7.844;2023-04-15T04:35:30;96856.13;;;5.26;78.49
50790;BME280;37287;47.554;7.844;2023-04-15T04:38:02;96857.38;;;5.32;77.99
50790;BME280;37287;47.554;7.844;2023-04-15T04:40:29;96868.53;;;5.38;77.23
50790;BME280;37287;47.554;7.844;2023-04-15T04:42:56;96859.72;;;5.37;78.19
50790;BME280;37287;47.554;7.844;2023-04-15T04:45:23;96862.38;;;5.37;78.26
50790;BME280;37287;47.554;7.844;2023-04-15T04:47:49;96866.97;;;5.33;79.19
50790;BME280;37287;47.554;7.844;2023-04-15T04:50:19;96872.72;;;5.35;78.45
50790;BME280;37287;47.554;7.844;2023-04-15T04:52:46;96874.66;;;5.34;78.44
50790;BME280;37287;47.554;7.844;2023-04-15T04:55:13;96870.81;;;5.36;78.32
50790;BME280;37287;47.554;7.844;2023-04-15T04:57:39;96879.66;;;5.36;78.75
50790;BME280;37287;47.554;7.844;2023-04-15T05:00:07;96880.03;;;5.34;79.95
50790;BME280;37287;47.554;7.844;2023-04-15T05:02:34;96881.88;;;5.30;81.19
50790;BME280;37287;47.554;7.844;2023-04-15T05:05:05;96884.47;;;5.23;82.66
50790;BME280;37287;47.554;7.844;2023-04-15T05:07:32;96882.94;;;5.22;82.78
50790;BME280;37287;47.554;7.844;2023-04-15T05:09:59;96886.28;;;5.15;84.42
50790;BME280;37287;47.554;7.844;2023-04-15T05:12:25;96880.47;;;5.10;85.25
50790;BME280;37287;47.554;7.844;2023-04-15T05:14:52;96880.00;;;5.04;86.85
50790;BME280;37287;47.554;7.844;2023-04-15T05:17:18;96875.75;;;4.99;88.13
50790;BME280;37287;47.554;7.844;2023-04-15T05:19:45;96870.28;;;4.92;89.28
50790;BME280;37287;47.554;7.844;2023-04-15T05:22:12;96872.53;;;4.90;89.01
50790;BME280;37287;47.554;7.844;2023-04-15T05:24:38;96871.78;;;4.90;88.78
50790;BME280;37287;47.554;7.844;2023-04-15T05:27:05;96880.91;;;4.85;91.01
50790;BME280;37287;47.554;7.844;2023-04-15T05:29:31;96883.50;;;4.78;92.05
50790;BME280;37287;47.554;7.844;2023-04-15T05:31:58;96887.66;;;4.75;92.54
50790;BME280;37287;47.554;7.844;2023-04-15T05:34:24;96880.34;;;4.72;92.58
50790;BME280;37287;47.554;7.844;2023-04-15T05:36:51;96887.59;;;4.72;93.77
50790;BME280;37287;47.554;7.844;2023-04-15T05:39:18;96886.03;;;4.71;94.53
50790;BME280;37287;47.554;7.844;2023-04-15T05:41:47;96886.84;;;4.71;95.26
50790;BME280;37287;47.554;7.844;2023-04-15T05:44:13;96887.59;;;4.72;95.92
50790;BME280;37287;47.554;7.844;2023-04-15T05:46:40;96885.34;;;4.74;95.72
50790;BME280;37287;47.554;7.844;2023-04-15T05:49:07;96890.38;;;4.79;95.45
50790;BME280;37287;47.554;7.844;2023-04-15T05:51:33;96883.16;;;4.83;94.25
50790;BME280;37287;47.554;7.844;2023-04-15T05:54:00;96884.72;;;4.84;93.76
50790;BME280;37287;47.554;7.844;2023-04-15T05:56:33;96896.28;;;4.88;93.48
50790;BME280;37287;47.554;7.844;2023-04-15T05:59:00;96890.19;;;4.91;93.56
50790;BME280;37287;47.554;7.844;2023-04-15T06:01:27;96883.69;;;4.92;93.70
50790;BME280;37287;47.554;7.844;2023-04-15T06:03:53;96880.22;;;4.92;93.98
50790;BME280;37287;47.554;7.844;2023-04-15T06:06:23;96890.59;;;4.93;94.28
50790;BME280;37287;47.554;7.844;2023-04-15T06:08:49;96889.44;;;4.94;94.68
50790;BME280;37287;47.554;7.844;2023-04-15T06:11:19;96891.00;;;4.95;94.65
50790;BME280;37287;47.554;7.844;2023-04-15T06:13:46;96893.31;;;4.97;94.45
50790;BME280;37287;47.554;7.844;2023-04-15T06:16:17;96901.00;;;4.98;94.61
50790;BME280;37287;47.554;7.844;2023-04-15T06:18:45;96897.59;;;5.02;93.82
50790;BME280;37287;47.554;7.844;2023-04-15T06:21:14;96897.22;;;5.03;93.66
50790;BME280;37287;47.554;7.844;2023-04-15T06:23:41;96901.09;;;5.06;92.92
50790;BME280;37287;47.554;7.844;2023-04-15T06:26:08;96896.16;;;5.08;93.36
50790;BME280;37287;47.554;7.844;2023-04-15T06:28:34;96897.28;;;5.07;93.93
50790;BME280;37287;47.554;7.844;2023-04-15T06:31:01;96898.84;;;5.08;94.37
50790;BME280;37287;47.554;7.844;2023-04-15T06:33:28;96894.97;;;5.05;95.33
50790;BME280;37287;47.554;7.844;2023-04-15T06:35:54;96903.38;;;5.04;96.75
50790;BME280;37287;47.554;7.844;2023-04-15T06:38:21;96901.84;;;5.03;96.94
50790;BME280;37287;47.554;7.844;2023-04-15T06:40:49;96902.97;;;5.02;96.58
50790;BME280;37287;47.554;7.844;2023-04-15T06:43:18;96901.06;;;5.02;98.74
50790;BME280;37287;47.554;7.844;2023-04-15T06:45:45;96894.91;;;5.02;99.43
50790;BME280;37287;47.554;7.844;2023-04-15T06:48:14;96906.44;;;5.02;99.06
50790;BME280;37287;47.554;7.844;2023-04-15T06:50:41;96893.41;;;5.04;97.53
50790;BME280;37287;47.554;7.844;2023-04-15T06:53:08;96899.53;;;5.05;98.77
50790;BME280;37287;47.554;7.844;2023-04-15T06:55:36;96904.97;;;5.08;97.54
50790;BME280;37287;47.554;7.844;2023-04-15T06:58:05;96901.94;;;5.10;98.23
50790;BME280;37287;47.554;7.844;2023-04-15T07:00:32;96911.91;;;5.09;98.90
50790;BME280;37287;47.554;7.844;2023-04-15T07:03:01;96895.06;;;5.12;98.15
50790;BME280;37287;47.554;7.844;2023-04-15T07:05:29;96901.25;;;5.16;98.73
50790;BME280;37287;47.554;7.844;2023-04-15T07:07:56;96903.28;;;5.23;100.00
50790;BME280;37287;47.554;7.844;2023-04-15T07:10:29;96900.25;;;5.28;99.91
50790;BME280;37287;47.554;7.844;2023-04-15T07:12:56;96893.81;;;5.33;100.00
50790;BME280;37287;47.554;7.844;2023-04-15T07:15:22;96896.94;;;5.39;99.84
50790;BME280;37287;47.554;7.844;2023-04-15T07:17:50;96896.22;;;5.42;99.16
50790;BME280;37287;47.554;7.844;2023-04-15T07:20:17;96898.91;;;5.45;99.92
50790;BME280;37287;47.554;7.844;2023-04-15T07:22:44;96899.34;;;5.47;99.03
50790;BME280;37287;47.554;7.844;2023-04-15T07:25:12;96899.75;;;5.49;99.15
50790;BME280;37287;47.554;7.844;2023-04-15T07:27:38;96896.38;;;5.56;99.83
50790;BME280;37287;47.554;7.844;2023-04-15T07:30:05;96896.41;;;5.60;100.00
50790;BME280;37287;47.554;7.844;2023-04-15T07:32:37;96899.50;;;5.62;100.00
50790;BME280;37287;47.554;7.844;2023-04-15T07:35:06;96901.00;;;5.59;99.56
50790;BME280;37287;47.554;7.844;2023-04-15T07:37:33;96898.31;;;5.59;100.00
50790;BME280;37287;47.554;7.844;2023-04-15T07:40:02;96904.88;;;5.62;100.00
50790;BME280;37287;47.554;7.844;2023-04-15T07:42:30;96904.56;;;5.67;100.00
50790;BME280;37287;47.554;7.844;2023-04-15T07:44:58;96898.41;;;5.66;100.00
50790;BME280;37287;47.554;7.844;2023-04-15T07:47:39;96904.13;;;5.65;100.00
50790;BME280;37287;47.554;7.844;2023-04-15T07:50:08;96912.25;;;5.68;100.00
50790;BME280;37287;47.554;7.844;2023-04-15T07:52:36;96910.28;;;5.65;100.00
50790;BME280;37287;47.554;7.844;2023-04-15T07:55:08;96911.00;;;5.62;100.00
50790;BME280;37287;47.554;7.844;2023-04-15T07:57:37;96911.75;;;5.59;100.00
50790;BME280;37287;47.554;7.844;2023-04-15T08:00:04;96915.19;;;5.60;100.00
50790;BME280;37287;47.554;7.844;2023-04-15T08:02:33;96909.47;;;5.61;100.00
50790;BME280;37287;47.554;7.844;2023-04-15T08:05:02;96919.06;;;5.62;100.00
50790;BME280;37287;47.554;7.844;2023-04-15T08:07:30;96904.91;;;5.65;100.00
50790;BME280;37287;47.554;7.844;2023-04-15T08:09:58;96918.38;;;5.69;100.00
50790;BME280;37287;47.554;7.844;2023-04-15T08:12:27;96911.91;;;5.74;100.00
50790;BME280;37287;47.554;7.844;2023-04-15T08:14:54;96909.66;;;5.79;100.00
50790;BME280;37287;47.554;7.844;2023-04-15T08:17:22;96912.03;;;5.84;100.00
50790;BME280;37287;47.554;7.844;2023-04-15T08:19:49;96913.22;;;5.87;100.00
50790;BME280;37287;47.554;7.844;2023-04-15T08:22:16;96914.78;;;5.92;100.00
50790;BME280;37287;47.554;7.844;2023-04-15T08:24:47;96914.41;;;5.93;100.00
50790;BME280;37287;47.554;7.844;2023-04-15T08:27:13;96922.22;;;6.02;100.00
50790;BME280;37287;47.554;7.844;2023-04-15T08:29:40;96920.38;;;6.10;100.00
50790;BME280;37287;47.554;7.844;2023-04-15T08:32:08;96911.63;;;6.20;100.00
50790;BME280;37287;47.554;7.844;2023-04-15T08:34:35;96919.03;;;6.30;100.00
50790;BME280;37287;47.554;7.844;2023-04-15T08:37:01;96921.81;;;6.41;100.00
50790;BME280;37287;47.554;7.844;2023-04-15T08:39:30;96924.22;;;6.53;100.00
50790;BME280;37287;47.554;7.844;2023-04-15T08:42:01;96918.19;;;6.67;100.00
50790;BME280;37287;47.554;7.844;2023-04-15T08:44:29;96928.69;;;6.83;100.00
50790;BME280;37287;47.554;7.844;2023-04-15T08:47:02;96924.91;;;6.95;100.00
50790;BME280;37287;47.554;7.844;2023-04-15T08:49:29;96928.09;;;7.12;100.00
50790;BME280;37287;47.554;7.844;2023-04-15T08:51:58;96927.00;;;7.20;100.00
50790;BME280;37287;47.554;7.844;2023-04-15T08:54:26;96930.91;;;7.30;100.00
50790;BME280;37287;47.554;7.844;2023-04-15T08:56:57;96928.63;;;7.39;100.00
50790;BME280;37287;47.554;7.844;2023-04-15T08:59:24;96934.41;;;7.45;100.00
50790;BME280;37287;47.554;7.844;2023-04-15T09:01:51;96932.53;;;7.52;100.00
50790;BME280;37287;47.554;7.844;2023-04-15T09:04:18;96927.16;;;7.56;100.00
50790;BME280;37287;47.554;7.844;2023-04-15T09:06:45;96927.22;;;7.67;100.00
50790;BME280;37287;47.554;7.844;2023-04-15T09:09:14;96932.59;;;7.70;100.00
50790;BME280;37287;47.554;7.844;2023-04-15T09:11:41;96932.63;;;7.74;100.00
50790;BME280;37287;47.554;7.844;2023-04-15T09:14:08;96938.78;;;7.78;100.00
50790;BME280;37287;47.554;7.844;2023-04-15T09:16:59;96936.88;;;7.86;100.00
50790;BME280;37287;47.554;7.844;2023-04-15T09:19:26;96940.38;;;7.94;100.00
50790;BME280;37287;47.554;7.844;2023-04-15T09:21:58;96936.94;;;8.00;100.00
50790;BME280;37287;47.554;7.844;2023-04-15T09:24:34;96943.09;;;8.04;100.00
50790;BME280;37287;47.554;7.844;2023-04-15T09:27:07;96946.97;;;8.07;99.48
50790;BME280;37287;47.554;7.844;2023-04-15T09:29:33;96944.25;;;8.07;99.52
50790;BME280;37287;47.554;7.844;2023-04-15T09:32:10;96947.38;;;8.09;100.00
50790;BME280;37287;47.554;7.844;2023-04-15T09:34:37;96957.34;;;8.08;100.00
50790;BME280;37287;47.554;7.844;2023-04-15T09:37:04;96961.22;;;8.07;99.56
50790;BME280;37287;47.554;7.844;2023-04-15T09:39:50;96960.44;;;8.14;100.00
50790;BME280;37287;47.554;7.844;2023-04-15T09:42:20;96956.22;;;8.13;98.51
50790;BME280;37287;47.554;7.844;2023-04-15T09:44:52;96964.31;;;8.17;98.90
50790;BME280;37287;47.554;7.844;2023-04-15T09:47:31;96970.13;;;8.19;100.00
50790;BME280;37287;47.554;7.844;2023-04-15T09:50:01;96972.81;;;8.26;99.71
50790;BME280;37287;47.554;7.844;2023-04-15T09:52:28;96973.59;;;8.30;98.44
50790;BME280;37287;47.554;7.844;2023-04-15T09:54:57;96981.72;;;8.37;99.13
50790;BME280;37287;47.554;7.844;2023-04-15T09:57:24;96973.63;;;8.37;99.65
50790;BME280;37287;47.554;7.844;2023-04-15T09:59:51;96986.31;;;8.33;100.00
50790;BME280;37287;47.554;7.844;2023-04-15T10:02:18;96991.72;;;8.33;100.00
50790;BME280;37287;47.554;7.844;2023-04-15T10:04:47;96991.31;;;8.35;100.00
50790;BME280;37287;47.554;7.844;2023-04-15T10:07:14;96995.94;;;8.38;100.00
50790;BME280;37287;47.554;7.844;2023-04-15T10:09:41;96992.88;;;8.39;100.00
50790;BME280;37287;47.554;7.844;2023-04-15T10:12:18;96998.25;;;8.32;100.00
50790;BME280;37287;47.554;7.844;2023-04-15T10:14:52;97010.59;;;8.33;100.00
50790;BME280;37287;47.554;7.844;2023-04-15T10:17:22;97002.88;;;8.28;100.00
50790;BME280;37287;47.554;7.844;2023-04-15T10:19:53;97007.09;;;8.22;100.00
50790;BME280;37287;47.554;7.844;2023-04-15T10:22:22;97012.06;;;8.13;100.00
50790;BME280;37287;47.554;7.844;2023-04-15T10:24:50;97010.88;;;7.99;100.00
50790;BME280;37287;47.554;7.844;2023-04-15T10:27:17;97021.25;;;7.94;100.00
50790;BME280;37287;47.554;7.844;2023-04-15T10:29:46;97019.69;;;7.89;100.00
50790;BME280;37287;47.554;7.844;2023-04-15T10:32:19;97028.50;;;7.86;100.00
50790;BME280;37287;47.554;7.844;2023-04-15T10:34:48;97036.97;;;7.81;100.00
50790;BME280;37287;47.554;7.844;2023-04-15T10:37:20;97031.94;;;7.75;100.00
50790;BME280;37287;47.554;7.844;2023-04-15T10:39:49;97034.97;;;7.70;100.00
50790;BME280;37287;47.554;7.844;2023-04-15T10:42:18;97034.94;;;7.60;100.00
50790;BME280;37287;47.554;7.844;2023-04-15T10:44:48;97040.66;;;7.51;100.00
50790;BME280;37287;47.554;7.844;2023-04-15T10:47:20;97045.25;;;7.47;100.00
50790;BME280;37287;47.554;7.844;2023-04-15T10:49:54;97050.22;;;7.45;100.00
50790;BME280;37287;47.554;7.844;2023-04-15T10:52:26;97057.16;;;7.46;100.00
50790;BME280;37287;47.554;7.844;2023-04-15T10:55:12;97053.31;;;7.47;100.00
50790;BME280;37287;47.554;7.844;2023-04-15T10:57:44;97049.41;;;7.40;100.00
50790;BME280;37287;47.554;7.844;2023-04-15T11:00:14;97052.47;;;7.35;100.00
50790;BME280;37287;47.554;7.844;2023-04-15T11:02:46;97053.63;;;7.38;100.00
50790;BME280;37287;47.554;7.844;2023-04-15T11:05:15;97053.66;;;7.42;100.00
50790;BME280;37287;47.554;7.844;2023-04-15T11:07:51;97061.75;;;7.42;100.00
50790;BME280;37287;47.554;7.844;2023-04-15T11:13:04;97062.16;;;7.47;100.00
50790;BME280;37287;47.554;7.844;2023-04-15T11:15:40;97071.09;;;7.58;100.00
50790;BME280;37287;47.554;7.844;2023-04-15T11:18:10;97064.22;;;7.68;100.00
50790;BME280;37287;47.554;7.844;2023-04-15T11:20:39;97062.38;;;7.80;100.00
50790;BME280;37287;47.554;7.844;2023-04-15T11:23:05;97058.16;;;7.86;100.00
50790;BME280;37287;47.554;7.844;2023-04-15T11:25:41;97058.25;;;8.00;100.00
50790;BME280;37287;47.554;7.844;2023-04-15T11:28:11;97057.88;;;8.05;100.00
50790;BME280;37287;47.554;7.844;2023-04-15T11:30:38;97056.38;;;8.12;100.00
50790;BME280;37287;47.554;7.844;2023-04-15T11:33:07;97057.91;;;8.16;100.00
50790;BME280;37287;47.554;7.844;2023-04-15T11:35:40;97069.13;;;8.29;100.00
50790;BME280;37287;47.554;7.844;2023-04-15T11:38:11;97067.59;;;8.35;100.00
50790;BME280;37287;47.554;7.844;2023-04-15T11:40:53;97076.91;;;8.45;100.00
50790;BME280;37287;47.554;7.844;2023-04-15T11:43:20;97073.78;;;8.36;100.00
50790;BME280;37287;47.554;7.844;2023-04-15T11:45:54;97078.84;;;8.45;100.00
50790;BME280;37287;47.554;7.844;2023-04-15T11:48:26;97080.41;;;8.46;100.00
50790;BME280;37287;47.554;7.844;2023-04-15T11:51:04;97083.88;;;8.46;100.00
50790;BME280;37287;47.554;7.844;2023-04-15T11:53:44;97090.03;;;8.47;100.00
50790;BME280;37287;47.554;7.844;2023-04-15T11:56:20;97090.84;;;8.54;100.00
50790;BME280;37287;47.554;7.844;2023-04-15T11:58:53;97096.25;;;8.62;100.00
50790;BME280;37287;47.554;7.844;2023-04-15T12:01:36;97097.44;;;8.71;100.00
50790;BME280;37287;47.554;7.844;2023-04-15T12:04:16;97105.53;;;8.82;100.00
50790;BME280;37287;47.554;7.844;2023-04-15T12:06:50;97102.88;;;8.89;100.00
50790;BME280;37287;47.554;7.844;2023-04-15T12:09:17;97103.25;;;8.91;100.00
50790;BME280;37287;47.554;7.844;2023-04-15T12:11:46;97110.19;;;9.03;100.00
50790;BME280;37287;47.554;7.844;2023-04-15T12:14:29;97109.44;;;9.17;100.00
50790;BME280;37287;47.554;7.844;2023-04-15T12:17:03;97112.56;;;9.34;100.00
50790;BME280;37287;47.554;7.844;2023-04-15T12:19:34;97116.41;;;9.47;100.00
50790;BME280;37287;47.554;7.844;2023-04-15T12:22:11;97126.06;;;9.48;100.00
50790;BME280;37287;47.554;7.844;2023-04-15T12:24:41;97126.84;;;9.56;100.00
50790;BME280;37287;47.554;7.844;2023-04-15T12:27:12;97131.09;;;9.46;100.00
50790;BME280;37287;47.554;7.844;2023-04-15T12:29:40;97134.16;;;9.48;100.00
50790;BME280;37287;47.554;7.844;2023-04-15T12:32:10;97141.91;;;9.53;100.00
50790;BME280;37287;47.554;7.844;2023-04-15T12:34:41;97147.69;;;9.59;100.00
50790;BME280;37287;47.554;7.844;2023-04-15T12:37:10;97148.06;;;9.61;100.00
50790;BME280;37287;47.554;7.844;2023-04-15T12:39:38;97151.53;;;9.65;100.00
50790;BME280;37287;47.554;7.844;2023-04-15T12:42:06;97154.63;;;9.74;100.00
50790;BME280;37287;47.554;7.844;2023-04-15T12:44:33;97160.78;;;9.82;100.00
50790;BME280;37287;47.554;7.844;2023-04-15T12:47:01;97165.03;;;9.87;100.00
50790;BME280;37287;47.554;7.844;2023-04-15T12:49:30;97163.47;;;10.04;100.00
50790;BME280;37287;47.554;7.844;2023-04-15T12:51:59;97173.88;;;10.09;100.00
50790;BME280;37287;47.554;7.844;2023-04-15T12:54:29;97186.28;;;9.92;98.45
50790;BME280;37287;47.554;7.844;2023-04-15T12:56:57;97188.22;;;9.88;98.15
50790;BME280;37287;47.554;7.844;2023-04-15T12:59:24;97194.41;;;9.77;97.73
50790;BME280;37287;47.554;7.844;2023-04-15T13:01:52;97190.53;;;9.78;98.32
50790;BME280;37287;47.554;7.844;2023-04-15T13:04:20;97191.69;;;9.92;99.22
50790;BME280;37287;47.554;7.844;2023-04-15T13:06:49;97193.59;;;10.02;99.48
50790;BME280;37287;47.554;7.844;2023-04-15T13:09:17;97200.53;;;10.10;97.93
50790;BME280;37287;47.554;7.844;2023-04-15T13:11:44;97204.41;;;10.09;96.59
50790;BME280;37287;47.554;7.844;2023-04-15T13:14:11;97204.03;;;10.14;97.51
50790;BME280;37287;47.554;7.844;2023-04-15T13:16:38;97212.16;;;10.07;96.44
50790;BME280;37287;47.554;7.844;2023-04-15T13:19:07;97225.28;;;10.05;96.31
50790;BME280;37287;47.554;7.844;2023-04-15T13:21:33;97215.25;;;10.17;95.78
50790;BME280;37287;47.554;7.844;2023-04-15T13:24:02;97218.31;;;10.22;95.19